createdAt,value
2023-03-29T00:01:00.160Z,101217.97
2023-03-29T00:04:04.322Z,101217.94
2023-03-29T00:07:07.233Z,101218.06
2023-03-29T00:10:11.112Z,101226.81
2023-03-29T00:13:13.603Z,101231.28
2023-03-29T00:16:15.842Z,101226.19
2023-03-29T00:19:18.622Z,101224.72
2023-03-29T00:22:21.421Z,101233.47
2023-03-29T00:25:23.654Z,101230.97
2023-03-29T00:28:25.955Z,101231.97
2023-03-29T00:31:29.003Z,101235.63
2023-03-29T00:34:31.323Z,101234.06
2023-03-29T00:37:33.634Z,101239.44
2023-03-29T00:40:42.532Z,101230.69
2023-03-29T00:43:52.677Z,101238.63
2023-03-29T00:46:55.888Z,101231.81
2023-03-29T00:50:03.091Z,101243.19
2023-03-29T00:53:15.190Z,101236.28
2023-03-29T00:56:21.703Z,101226.56
2023-03-29T00:59:25.810Z,101224.66
2023-03-29T01:02:34.506Z,101222.06
2023-03-29T01:05:40.538Z,101218.75
2023-03-29T01:08:52.958Z,101218.03
2023-03-29T01:11:57.001Z,101214.75
2023-03-29T01:15:04.455Z,101217.25
2023-03-29T01:18:06.868Z,101208.50
2023-03-29T01:21:32.360Z,101201.47
2023-03-29T01:25:16.905Z,101198.16
2023-03-29T01:28:22.869Z,101194.63
2023-03-29T01:31:31.545Z,101198.94
2023-03-29T01:34:54.786Z,101181.47
2023-03-29T01:38:03.155Z,101191.91
2023-03-29T01:41:05.746Z,101185.75
2023-03-29T01:44:17.353Z,101192.69
2023-03-29T01:47:22.534Z,101197.94
2023-03-29T01:50:37.824Z,101191.00
2023-03-29T01:53:52.021Z,101195.22
2023-03-29T01:56:57.155Z,101196.34
2023-03-29T02:00:00.854Z,101203.53
2023-03-29T02:03:07.260Z,101202.66
2023-03-29T02:06:13.481Z,101200.22
2023-03-29T02:09:16.734Z,101206.47
2023-03-29T02:12:19.201Z,101201.41
2023-03-29T02:15:21.778Z,101209.41
2023-03-29T02:18:24.780Z,101210.41
2023-03-29T02:21:31.557Z,101213.28
2023-03-29T02:24:36.549Z,101220.41
2023-03-29T02:27:39.548Z,101222.19
2023-03-29T02:30:41.755Z,101212.97
2023-03-29T02:33:53.056Z,101212.28
2023-03-29T02:37:01.021Z,101220.13
2023-03-29T02:40:12.538Z,101219.41
2023-03-29T02:43:15.938Z,101216.78
2023-03-29T02:46:19.062Z,101208.09
2023-03-29T02:49:21.579Z,101219.41
2023-03-29T02:52:33.548Z,101220.16
2023-03-29T02:55:36.214Z,101215.72
2023-03-29T02:58:38.705Z,101218.25
2023-03-29T03:01:43.846Z,101223.34
2023-03-29T03:04:46.208Z,101235.75
2023-03-29T03:07:48.956Z,101235.75
2023-03-29T03:10:51.193Z,101238.19
2023-03-29T03:13:54.525Z,101234.88
2023-03-29T03:16:57.870Z,101243.84
2023-03-29T03:20:00.158Z,101241.59
2023-03-29T03:23:03.461Z,101237.16
2023-03-29T03:26:06.057Z,101235.59
2023-03-29T03:29:09.023Z,101240.88
2023-03-29T03:32:41.509Z,101239.94
2023-03-29T03:36:11.310Z,101233.69
2023-03-29T03:39:13.808Z,101241.66
2023-03-29T03:42:17.075Z,101240.78
2023-03-29T03:45:21.141Z,101233.09
2023-03-29T03:48:47.039Z,101244.31
2023-03-29T03:51:56.927Z,101245.31
2023-03-29T03:54:59.524Z,101243.41
2023-03-29T03:58:24.460Z,101244.28
2023-03-29T04:01:27.439Z,101245.22
2023-03-29T04:04:49.163Z,101254.91
2023-03-29T04:07:54.308Z,101243.63
2023-03-29T04:11:12.419Z,101253.00
2023-03-29T04:14:17.308Z,101249.53
2023-03-29T04:17:38.476Z,101240.66
2023-03-29T04:21:04.395Z,101239.03
2023-03-29T04:24:08.996Z,101241.53
2023-03-29T04:27:13.512Z,101235.19
2023-03-29T04:30:15.843Z,101238.44
2023-03-29T04:33:53.409Z,101242.72
2023-03-29T04:36:56.416Z,101251.31
2023-03-29T04:40:04.892Z,101245.03
2023-03-29T04:43:18.856Z,101241.47
2023-03-29T04:46:30.859Z,101250.34
2023-03-29T04:49:58.351Z,101251.00
2023-03-29T04:53:12.991Z,101253.63
2023-03-29T04:56:16.510Z,101247.41
2023-03-29T04:59:41.509Z,101263.59
2023-03-29T05:02:59.137Z,101265.91
2023-03-29T05:06:07.623Z,101261.09
2023-03-29T05:09:11.486Z,101260.03
2023-03-29T05:12:26.305Z,101262.47
2023-03-29T05:15:30.019Z,101265.72
2023-03-29T05:18:32.261Z,101251.59
2023-03-29T05:21:35.344Z,101261.97
2023-03-29T05:24:42.152Z,101259.22
2023-03-29T05:27:53.152Z,101261.56
2023-03-29T05:31:04.591Z,101256.09
2023-03-29T05:34:09.063Z,101250.66
2023-03-29T05:37:16.378Z,101257.28
2023-03-29T05:40:27.480Z,101250.81
2023-03-29T05:43:54.485Z,101251.56
2023-03-29T05:46:59.758Z,101255.63
2023-03-29T05:50:02.081Z,101253.81
2023-03-29T05:53:04.360Z,101258.22
2023-03-29T05:56:08.721Z,101268.44
2023-03-29T05:59:11.426Z,101258.75
2023-03-29T06:02:16.040Z,101270.72
2023-03-29T06:05:23.344Z,101271.16
2023-03-29T06:08:35.024Z,101265.72
2023-03-29T06:11:58.953Z,101279.50
2023-03-29T06:15:08.982Z,101273.06
2023-03-29T06:18:17.610Z,101277.38
2023-03-29T06:21:19.962Z,101279.06
2023-03-29T06:24:22.610Z,101276.44
2023-03-29T06:27:31.596Z,101279.66
2023-03-29T06:30:34.392Z,101282.78
2023-03-29T06:33:38.166Z,101287.84
2023-03-29T06:37:03.603Z,101281.34
2023-03-29T06:40:07.040Z,101282.41
2023-03-29T06:43:19.788Z,101276.72
2023-03-29T06:46:30.073Z,101272.28
2023-03-29T06:49:35.984Z,101269.50
2023-03-29T06:53:01.691Z,101270.13
2023-03-29T06:56:09.390Z,101269.34
2023-03-29T06:59:18.944Z,101261.09
2023-03-29T07:02:47.386Z,101278.84
2023-03-29T07:05:52.204Z,101294.78
2023-03-29T07:08:59.747Z,101290.47
2023-03-29T07:12:23.366Z,101298.03
2023-03-29T07:15:27.763Z,101302.75
2023-03-29T07:18:45.644Z,101297.38
2023-03-29T07:21:57.059Z,101301.59
2023-03-29T07:25:22.502Z,101299.88
2023-03-29T07:28:25.320Z,101305.03
2023-03-29T07:31:33.036Z,101303.56
2023-03-29T07:34:55.725Z,101308.66
2023-03-29T07:38:05.712Z,101301.28
2023-03-29T07:41:08.676Z,101300.78
2023-03-29T07:44:21.651Z,101296.19
2023-03-29T07:47:24.722Z,101296.56
2023-03-29T07:50:27.531Z,101299.53
2023-03-29T07:53:33.951Z,101300.66
2023-03-29T07:56:39.844Z,101303.53
2023-03-29T07:59:54.213Z,101309.63
2023-03-29T08:03:03.794Z,101312.94
2023-03-29T08:06:07.138Z,101309.91
2023-03-29T08:09:09.484Z,101304.63
2023-03-29T08:12:12.197Z,101312.63
2023-03-29T08:15:15.478Z,101306.13
2023-03-29T08:18:18.032Z,101300.19
2023-03-29T08:21:20.425Z,101308.34
2023-03-29T08:24:24.956Z,101304.81
2023-03-29T08:27:32.464Z,101298.91
2023-03-29T08:30:35.336Z,101292.88
2023-03-29T08:33:39.167Z,101294.06
2023-03-29T08:36:59.948Z,101298.41
2023-03-29T08:40:22.470Z,101292.03
2023-03-29T08:44:21.576Z,101283.84
2023-03-29T08:47:41.632Z,101287.66
2023-03-29T08:50:52.808Z,101290.94
2023-03-29T08:54:17.123Z,101282.13
2023-03-29T08:57:45.244Z,101268.50
2023-03-29T09:00:54.697Z,101260.50
2023-03-29T09:04:07.376Z,101262.09
2023-03-29T09:07:24.029Z,101253.13
2023-03-29T09:10:41.125Z,101253.31
2023-03-29T09:13:57.315Z,101252.69
2023-03-29T09:17:01.695Z,101240.28
2023-03-29T09:20:27.966Z,101241.59
2023-03-29T09:23:47.016Z,101236.88
2023-03-29T09:27:27.755Z,101235.84
2023-03-29T09:30:41.721Z,101226.66
2023-03-29T09:33:52.504Z,101228.50
2023-03-29T09:37:09.155Z,101228.78
2023-03-29T09:40:16.643Z,101237.31
2023-03-29T09:43:41.675Z,101224.72
2023-03-29T09:46:57.090Z,101220.63
2023-03-29T09:50:34.087Z,101220.09
2023-03-29T09:53:39.408Z,101215.50
2023-03-29T09:57:15.884Z,101209.66
2023-03-29T10:00:19.680Z,101211.97
2023-03-29T10:03:27.434Z,101207.94
2023-03-29T10:06:49.216Z,101197.88
2023-03-29T10:09:52.695Z,101195.13
2023-03-29T10:13:04.395Z,101192.34
2023-03-29T10:16:09.245Z,101186.25
2023-03-29T10:19:15.250Z,101189.13
2023-03-29T10:22:32.357Z,101192.00
2023-03-29T10:25:42.287Z,101181.50
2023-03-29T10:28:45.417Z,101185.50
2023-03-29T10:31:48.078Z,101182.09
2023-03-29T10:34:51.275Z,101174.09
2023-03-29T10:37:56.259Z,101175.13
2023-03-29T10:41:17.355Z,101173.75
2023-03-29T10:44:27.736Z,101172.22
2023-03-29T10:47:34.471Z,101165.38
2023-03-29T10:50:38.241Z,101161.78
2023-03-29T10:53:41.147Z,101162.81
2023-03-29T10:56:47.380Z,101161.88
2023-03-29T11:00:11.223Z,101163.81
2023-03-29T11:03:21.390Z,101158.34
2023-03-29T11:06:33.537Z,101154.53
2023-03-29T11:10:15.761Z,101158.63
2023-03-29T11:13:23.994Z,101153.75
2023-03-29T11:17:18.845Z,101149.41
2023-03-29T11:20:27.145Z,101148.50
2023-03-29T11:24:13.802Z,101151.19
2023-03-29T11:27:37.620Z,101150.34
2023-03-29T11:30:58.456Z,101147.81
2023-03-29T11:34:43.218Z,101142.47
2023-03-29T11:48:21.480Z,101116.09
2023-03-29T11:51:27.232Z,101122.22
2023-03-29T11:54:49.345Z,101111.31
2023-03-29T11:58:20.668Z,101111.22
2023-03-29T12:01:31.413Z,101111.47
2023-03-29T12:04:38.719Z,101107.59
2023-03-29T12:08:05.291Z,101099.34
2023-03-29T12:11:17.426Z,101091.41
2023-03-29T12:14:26.086Z,101086.47
2023-03-29T12:17:34.579Z,101087.50
2023-03-29T12:20:39.808Z,101079.00
2023-03-29T12:23:45.446Z,101080.00
2023-03-29T12:26:47.978Z,101073.13
2023-03-29T12:30:02.583Z,101067.97
2023-03-29T12:33:32.035Z,101063.91
2023-03-29T12:37:22.143Z,101067.16
2023-03-29T12:40:45.726Z,101061.47
2023-03-29T12:44:23.555Z,101057.34
2023-03-29T12:47:43.293Z,101050.00
2023-03-29T12:50:53.085Z,101054.91
2023-03-29T12:54:21.202Z,101056.88
2023-03-29T12:57:39.440Z,101053.97
2023-03-29T13:00:44.564Z,101051.56
2023-03-29T13:03:52.724Z,101050.19
2023-03-29T13:07:05.743Z,101050.72
2023-03-29T13:10:09.564Z,101038.56
2023-03-29T13:13:19.417Z,101032.25
2023-03-29T13:16:29.930Z,101032.41
2023-03-29T13:20:12.521Z,101025.41
2023-03-29T13:23:43.852Z,101024.38
2023-03-29T13:27:18.365Z,101025.94
2023-03-29T13:30:34.814Z,101028.66
2023-03-29T13:33:52.943Z,101017.72
2023-03-29T13:37:00.946Z,101012.66
2023-03-29T13:40:32.901Z,101009.31
2023-03-29T13:43:36.569Z,101011.25
2023-03-29T13:46:41.481Z,101007.94
2023-03-29T13:49:51.746Z,100993.72
2023-03-29T13:52:58.490Z,100996.16
2023-03-29T13:56:01.773Z,100993.72
2023-03-29T13:59:14.461Z,100992.97
2023-03-29T14:02:26.342Z,100999.47
2023-03-29T14:05:40.047Z,100996.84
2023-03-29T14:08:43.961Z,100986.03
2023-03-29T14:11:47.425Z,100992.84
2023-03-29T14:14:58.795Z,100991.66
2023-03-29T14:18:02.128Z,100998.41
2023-03-29T14:21:04.855Z,100985.53
2023-03-29T14:24:12.829Z,100980.72
2023-03-29T14:27:16.060Z,100971.31
2023-03-29T14:30:28.716Z,100985.31
2023-03-29T14:33:38.167Z,100978.34
2023-03-29T14:36:41.722Z,100984.97
2023-03-29T14:39:44.664Z,100978.53
2023-03-29T14:42:48.605Z,100980.91
2023-03-29T14:45:51.167Z,100977.13
2023-03-29T14:48:54.247Z,100970.09
2023-03-29T14:51:56.673Z,100968.59
2023-03-29T14:55:00.907Z,100967.97
2023-03-29T14:58:03.252Z,100964.41
2023-03-29T15:01:19.865Z,100962.16
2023-03-29T15:04:22.286Z,100967.53
2023-03-29T15:07:27.032Z,100963.41
2023-03-29T15:10:32.270Z,100966.09
2023-03-29T15:13:34.590Z,100945.19
2023-03-29T15:16:42.730Z,100954.41
2023-03-29T15:19:45.006Z,100954.03
2023-03-29T15:23:04.067Z,100952.72
2023-03-29T15:26:32.680Z,100944.84
2023-03-29T15:29:37.375Z,100954.78
2023-03-29T15:32:39.909Z,100951.44
2023-03-29T15:35:43.185Z,100948.28
2023-03-29T15:38:49.407Z,100937.94
2023-03-29T15:41:52.791Z,100937.31
2023-03-29T15:44:56.313Z,100926.13
2023-03-29T15:48:02.053Z,100918.19
2023-03-29T15:51:06.694Z,100928.59
2023-03-29T15:54:09.454Z,100926.38
2023-03-29T15:57:16.203Z,100926.50
2023-03-29T16:00:19.840Z,100920.59
2023-03-29T16:03:22.449Z,100921.19
2023-03-29T16:06:25.108Z,100921.69
2023-03-29T16:09:27.406Z,100911.13
2023-03-29T16:12:29.654Z,100908.41
2023-03-29T16:15:33.611Z,100909.81
2023-03-29T16:18:36.267Z,100906.72
2023-03-29T16:21:38.699Z,100906.06
2023-03-29T16:24:41.334Z,100902.66
2023-03-29T16:27:44.163Z,100905.66
2023-03-29T16:30:46.590Z,100897.63
2023-03-29T16:33:49.034Z,100894.25
2023-03-29T16:36:53.010Z,100889.75
2023-03-29T16:39:56.123Z,100897.34
2023-03-29T16:42:58.321Z,100898.19
2023-03-29T16:46:03.371Z,100894.91
2023-03-29T16:49:07.965Z,100898.03
2023-03-29T16:52:10.333Z,100903.84
2023-03-29T16:55:13.628Z,100904.19
2023-03-29T16:58:16.204Z,100905.50
2023-03-29T17:01:19.270Z,100909.81
2023-03-29T17:04:21.451Z,100896.41
2023-03-29T17:07:23.526Z,100903.59
2023-03-29T17:10:25.700Z,100908.28
2023-03-29T17:13:28.067Z,100906.66
2023-03-29T17:16:30.491Z,100893.94
2023-03-29T17:19:32.836Z,100897.28
2023-03-29T17:22:35.873Z,100900.34
2023-03-29T17:25:38.127Z,100908.19
2023-03-29T17:28:40.430Z,100912.03
2023-03-29T17:31:47.715Z,100907.25
2023-03-29T17:34:50.569Z,100906.63
2023-03-29T17:37:52.825Z,100911.91
2023-03-29T17:40:55.604Z,100914.00
2023-03-29T17:43:57.920Z,100921.31
2023-03-29T17:47:00.969Z,100921.63
2023-03-29T17:50:04.834Z,100915.09
2023-03-29T17:53:07.272Z,100925.97
2023-03-29T17:56:09.509Z,100925.75
2023-03-29T17:59:11.775Z,100925.09
2023-03-29T18:02:19.648Z,100928.97
2023-03-29T18:05:21.933Z,100931.75
2023-03-29T18:08:24.213Z,100936.03
2023-03-29T18:11:27.300Z,100939.38
2023-03-29T18:14:29.443Z,100947.06
2023-03-29T18:17:31.759Z,100943.34
2023-03-29T18:20:34.137Z,100949.34
2023-03-29T18:23:39.952Z,100960.09
2023-03-29T18:26:42.321Z,100952.16
2023-03-29T18:29:46.048Z,100947.56
2023-03-29T18:32:48.439Z,100958.06
2023-03-29T18:35:51.447Z,100957.16
2023-03-29T18:38:55.783Z,100960.53
2023-03-29T18:41:58.043Z,100955.25
2023-03-29T18:45:00.298Z,100961.31
2023-03-29T18:48:05.355Z,100960.38
2023-03-29T18:51:09.402Z,100960.38
2023-03-29T18:54:11.916Z,100958.66
2023-03-29T18:57:14.253Z,100959.69
2023-03-29T19:00:17.583Z,100955.59
2023-03-29T19:03:19.921Z,100960.72
2023-03-29T19:06:22.261Z,100966.16
2023-03-29T19:09:24.590Z,100962.59
2023-03-29T19:12:26.873Z,100968.75
2023-03-29T19:15:29.140Z,100962.75
2023-03-29T19:18:31.528Z,100960.19
2023-03-29T19:21:33.904Z,100961.16
2023-03-29T19:24:36.271Z,100955.84
2023-03-29T19:27:38.516Z,100965.84
2023-03-29T19:30:41.312Z,100966.78
2023-03-29T19:33:43.598Z,100972.88
2023-03-29T19:36:46.033Z,100972.94
2023-03-29T19:39:48.255Z,100976.53
2023-03-29T19:42:50.568Z,100965.94
2023-03-29T19:45:52.818Z,100958.78
2023-03-29T19:48:56.192Z,100961.34
2023-03-29T19:51:59.122Z,100956.06
2023-03-29T19:55:02.112Z,100956.06
2023-03-29T19:58:05.537Z,100955.09
2023-03-29T20:01:07.825Z,100951.50
2023-03-29T20:04:10.170Z,100947.41
2023-03-29T20:07:13.005Z,100937.84
2023-03-29T20:10:15.510Z,100946.13
2023-03-29T20:13:27.686Z,100946.25
2023-03-29T20:16:42.754Z,100945.34
2023-03-29T20:19:45.012Z,100938.06
2023-03-29T20:22:47.875Z,100939.78
2023-03-29T20:25:50.144Z,100940.91
2023-03-29T20:28:52.415Z,100938.41
2023-03-29T20:31:54.717Z,100943.94
2023-03-29T20:34:57.018Z,100941.63
2023-03-29T20:37:59.311Z,100936.47
2023-03-29T20:41:02.913Z,100933.91
2023-03-29T20:44:05.689Z,100936.88
2023-03-29T20:47:08.151Z,100923.09
2023-03-29T20:50:10.780Z,100926.69
2023-03-29T20:53:13.454Z,100932.81
2023-03-29T20:56:15.685Z,100938.38
2023-03-29T20:59:18.067Z,100933.78
2023-03-29T21:02:22.976Z,100937.03
2023-03-29T21:05:30.164Z,100929.19
2023-03-29T21:08:32.454Z,100934.00
2023-03-29T21:11:34.722Z,100931.38
2023-03-29T21:14:37.907Z,100931.38
2023-03-29T21:17:40.935Z,100926.69
2023-03-29T21:20:44.120Z,100929.94
2023-03-29T21:23:46.416Z,100922.78
2023-03-29T21:26:48.748Z,100924.22
2023-03-29T21:29:51.274Z,100922.34
2023-03-29T21:32:53.582Z,100917.06
2023-03-29T21:35:55.852Z,100924.81
2023-03-29T21:38:58.118Z,100913.94
2023-03-29T21:42:00.480Z,100913.63
2023-03-29T21:45:03.084Z,100914.25
2023-03-29T21:48:05.722Z,100913.41
2023-03-29T21:51:08.622Z,100911.38
2023-03-29T21:54:11.419Z,100909.50
2023-03-29T21:57:13.703Z,100909.41
2023-03-29T22:00:17.718Z,100911.44
2023-03-29T22:03:19.991Z,100911.31
2023-03-29T22:06:22.360Z,100913.03
2023-03-29T22:09:26.635Z,100920.25
2023-03-29T22:12:28.887Z,100920.16
2023-03-29T22:15:35.509Z,100922.50
2023-03-29T22:18:44.302Z,100912.56
2023-03-29T22:21:48.433Z,100921.09
2023-03-29T22:24:55.123Z,100914.72
2023-03-29T22:27:57.388Z,100908.56
2023-03-29T22:31:07.983Z,100908.56
2023-03-29T22:34:10.515Z,100913.47
2023-03-29T22:37:12.803Z,100920.00
2023-03-29T22:40:15.552Z,100924.41
2023-03-29T22:43:17.854Z,100928.88
2023-03-29T22:46:20.990Z,100931.16
2023-03-29T22:49:23.174Z,100924.50
2023-03-29T22:52:26.219Z,100931.94
2023-03-29T22:55:28.349Z,100923.09
2023-03-29T22:58:30.653Z,100920.34
2023-03-29T23:01:32.998Z,100925.50
2023-03-29T23:04:36.652Z,100924.63
2023-03-29T23:07:38.997Z,100924.72
2023-03-29T23:10:41.328Z,100924.78
2023-03-29T23:13:43.631Z,100919.66
2023-03-29T23:16:46.125Z,100926.50
2023-03-29T23:19:48.445Z,100918.94
2023-03-29T23:22:50.728Z,100915.59
2023-03-29T23:25:53.774Z,100915.91
2023-03-29T23:28:57.448Z,100913.28
2023-03-29T23:31:59.737Z,100914.97
2023-03-29T23:35:04.494Z,100909.69
2023-03-29T23:38:08.514Z,100909.53
2023-03-29T23:41:12.939Z,100908.66
2023-03-29T23:44:15.465Z,100916.25
2023-03-29T23:47:17.682Z,100915.38
2023-03-29T23:50:20.010Z,100920.44
2023-03-29T23:53:22.249Z,100908.91
2023-03-29T23:56:24.938Z,100910.63
2023-03-29T23:59:29.980Z,100905.81
